Time;durP1;ratioP1;P1;durP2;ratioP2;P2;SDS_P1;SDS_P2;PMS_P1;PMS_P2;Temp;Humidity;BMP_temperature;BMP_pressure;BME280_temperature;BME280_humidity;BME280_pressure;Samples;Min_cycle;Max_cycle;Signal;HPM_P1;HPM_P2
2021/10/28 00:13:34;;;;;;;7.47;5.97;;;11.50;99.90;;;;;;5060851;28;20384;-87
2021/10/28 00:16:11;;;;;;;5.73;5.07;;;11.40;99.90;;;;;;5061587;28;20475;-86
2021/10/28 00:18:41;;;;;;;5.97;5.00;;;11.30;99.90;;;;;;5060840;28;20407;-86
2021/10/28 00:21:09;;;;;;;8.53;5.43;;;10.90;99.90;;;;;;5060460;28;20406;-86
2021/10/28 00:23:42;;;;;;;6.57;5.10;;;;;;;;;;5061028;28;20447;-86
2021/10/28 00:26:10;;;;;;;6.23;5.33;;;11.30;99.90;;;;;;5061748;28;20415;-86
2021/10/28 00:28:36;;;;;;;7.10;6.27;;;11.30;99.90;;;;;;5070195;28;20456;-86
2021/10/28 00:31:04;;;;;;;5.67;5.17;;;11.30;99.90;;;;;;5079108;28;20470;-85
2021/10/28 00:33:31;;;;;;;6.80;6.10;;;11.00;99.90;;;;;;5062303;28;20420;-86
2021/10/28 00:36:00;;;;;;;6.77;6.17;;;11.30;99.90;;;;;;5058891;28;20561;-86
2021/10/28 00:38:27;;;;;;;6.97;6.30;;;10.70;99.90;;;;;;5059177;28;20453;-86
2021/10/28 00:40:54;;;;;;;7.00;5.77;;;11.10;99.90;;;;;;5059204;28;20544;-86
2021/10/28 00:43:21;;;;;;;6.00;5.40;;;11.10;99.90;;;;;;5063329;28;20417;-86
2021/10/28 00:45:50;;;;;;;6.97;6.37;;;11.10;99.90;;;;;;5058089;28;21008;-86
2021/10/28 00:48:17;;;;;;;5.53;5.03;;;12.10;99.90;;;;;;5058766;28;20519;-86
2021/10/28 00:50:44;;;;;;;6.50;5.90;;;10.70;99.90;;;;;;5058106;28;20489;-86
2021/10/28 00:53:12;;;;;;;6.53;6.00;;;10.90;99.90;;;;;;5060135;28;20758;-87
2021/10/28 00:55:40;;;;;;;9.93;6.60;;;10.80;99.90;;;;;;5059967;28;20481;-86
2021/10/28 00:58:08;;;;;;;7.67;6.43;;;10.80;99.90;;;;;;5060004;28;20450;-87
2021/10/28 01:00:35;;;;;;;7.63;6.10;;;10.80;99.90;;;;;;5058159;28;20442;-86
2021/10/28 01:03:02;;;;;;;7.70;6.40;;;10.70;99.90;;;;;;5058552;28;20450;-87
2021/10/28 01:05:29;;;;;;;7.50;6.63;;;10.20;99.90;;;;;;5057988;28;20437;-87
2021/10/28 01:07:56;;;;;;;7.00;6.30;;;10.00;99.90;;;;;;5057610;28;20460;-86
2021/10/28 01:10:24;;;;;;;7.17;6.47;;;10.70;99.90;;;;;;5057756;28;20800;-86
2021/10/28 01:12:51;;;;;;;7.63;6.87;;;;;;;;;;5057346;28;20458;-86
2021/10/28 01:15:18;;;;;;;8.20;7.40;;;;;;;;;;5057227;28;20441;-86
2021/10/28 01:17:45;;;;;;;7.13;6.43;;;;;;;;;;5059080;28;20450;-86
2021/10/28 01:20:14;;;;;;;7.50;6.80;;;10.60;99.90;;;;;;5056951;28;20517;-87
2021/10/28 01:22:44;;;;;;;9.13;8.17;;;10.60;99.90;;;;;;5062189;28;20442;-86
2021/10/28 01:25:11;;;;;;;7.60;6.80;;;10.50;99.90;;;;;;5079159;28;20482;-85
2021/10/28 01:27:38;;;;;;;8.10;7.30;;;10.40;99.90;;;;;;5074018;28;20463;-86
2021/10/28 01:30:06;;;;;;;10.07;8.90;;;10.50;99.90;;;;;;5058304;28;20535;-87
2021/10/28 01:32:33;;;;;;;9.10;8.17;;;10.40;99.90;;;;;;5063974;28;20420;-87
2021/10/28 01:35:00;;;;;;;8.83;7.93;;;10.50;99.90;;;;;;5074603;28;20467;-86
2021/10/28 01:37:28;;;;;;;10.00;8.97;;;10.40;99.90;;;;;;5078231;28;20442;-86
2021/10/28 01:39:55;;;;;;;9.60;8.60;;;10.40;99.90;;;;;;5078572;28;20458;-87
2021/10/28 01:42:21;;;;;;;10.60;9.60;;;10.60;99.90;;;;;;5078755;28;20445;-86
2021/10/28 01:44:48;;;;;;;10.40;9.30;;;;;;;;;;5072748;28;20462;-87
2021/10/28 01:47:17;;;;;;;11.33;8.93;;;10.50;99.90;;;;;;5058545;28;20424;-87
2021/10/28 01:49:44;;;;;;;16.20;9.37;;;;;;;;;;5058104;28;20825;-86
2021/10/28 01:52:12;;;;;;;11.07;8.70;;;10.30;99.90;;;;;;5059006;28;20428;-85
2021/10/28 01:54:41;;;;;;;10.53;9.53;;;10.10;99.90;;;;;;5084629;22;20555;-85
2021/10/28 01:57:16;;;;;;;10.90;9.73;;;10.00;99.90;;;;;;5073519;28;20540;-84
2021/10/28 01:59:43;;;;;;;10.70;9.70;;;10.10;99.90;;;;;;5070656;28;20401;-84
2021/10/28 02:02:10;;;;;;;9.80;8.80;;;10.10;99.90;;;;;;5069589;28;20421;-88
2021/10/28 02:04:36;;;;;;;11.93;10.00;;;9.30;99.90;;;;;;5068158;28;20450;-85
2021/10/28 02:07:04;;;;;;;11.77;10.53;;;9.20;99.90;;;;;;5068862;28;20446;-83
2021/10/28 02:09:30;;;;;;;12.10;9.70;;;10.10;99.90;;;;;;5068286;28;20450;-85
2021/10/28 02:11:59;;;;;;;11.73;10.63;;;10.10;99.90;;;;;;5069442;28;20449;-85
2021/10/28 02:14:26;;;;;;;11.73;10.13;;;;;;;;;;5067418;28;20472;-86
2021/10/28 02:16:53;;;;;;;13.77;10.50;;;10.00;99.90;;;;;;5066999;28;20426;-85
2021/10/28 02:19:20;;;;;;;12.97;10.80;;;9.20;99.90;;;;;;5066282;28;20450;-86
2021/10/28 02:21:47;;;;;;;11.20;9.60;;;9.60;99.90;;;;;;5067154;28;20428;-85
2021/10/28 02:24:14;;;;;;;11.73;10.00;;;;;;;;;;5066568;28;20417;-87
2021/10/28 02:26:41;;;;;;;11.77;10.30;;;9.80;99.90;;;;;;5068292;28;20473;-86
2021/10/28 02:29:09;;;;;;;13.70;9.70;;;10.00;99.90;;;;;;5072526;28;20446;-83
2021/10/28 02:31:36;;;;;;;12.97;10.03;;;8.90;99.90;;;;;;5073156;28;20486;-85
2021/10/28 02:34:03;;;;;;;13.27;10.40;;;9.60;99.90;;;;;;5072911;28;20466;-83
2021/10/28 02:36:30;;;;;;;11.13;10.00;;;9.30;99.90;;;;;;5075941;28;20447;-84
2021/10/28 02:38:56;;;;;;;15.87;11.07;;;9.80;99.90;;;;;;5075994;28;20438;-84
2021/10/28 02:41:23;;;;;;;11.97;9.53;;;9.90;99.90;;;;;;5075571;28;20413;-86
2021/10/28 02:43:50;;;;;;;12.60;10.50;;;10.00;99.90;;;;;;5074029;28;20475;-87
2021/10/28 02:46:18;;;;;;;11.87;9.80;;;9.50;99.90;;;;;;5071747;28;20475;-86
2021/10/28 02:48:45;;;;;;;13.47;10.73;;;;;;;;;;5076209;28;20446;-86
2021/10/28 02:51:12;;;;;;;12.03;10.40;;;9.80;99.90;;;;;;5076091;28;20448;-84
2021/10/28 02:53:38;;;;;;;15.60;10.87;;;10.50;99.90;;;;;;5071117;28;20449;-85
2021/10/28 02:56:06;;;;;;;13.90;10.23;;;9.80;99.90;;;;;;5076415;28;20433;-85
2021/10/28 02:58:33;;;;;;;12.60;9.80;;;9.20;99.90;;;;;;5078108;28;20413;-84
2021/10/28 03:01:00;;;;;;;12.30;10.33;;;9.70;99.90;;;;;;5077569;28;20436;-87
2021/10/28 03:03:28;;;;;;;13.40;11.10;;;9.70;99.90;;;;;;5076255;28;20468;-86
2021/10/28 03:05:54;;;;;;;14.43;11.73;;;9.40;99.90;;;;;;5074281;28;20458;-84
2021/10/28 03:08:21;;;;;;;13.57;10.27;;;9.10;99.90;;;;;;5073774;28;20438;-84
2021/10/28 03:10:48;;;;;;;11.50;9.90;;;9.80;99.90;;;;;;5071483;28;20479;-85
2021/10/28 03:13:19;;;;;;;12.00;10.80;;;9.00;99.90;;;;;;5073769;28;20419;-86
2021/10/28 03:15:48;;;;;;;12.63;10.93;;;9.60;99.90;;;;;;5068511;28;20445;-87
2021/10/28 03:19:08;;;;;;;12.80;10.13;;;9.60;99.90;;;;;;5070813;28;20489;-86
2021/10/28 03:26:37;;;;;;;12.30;11.00;;;9.10;99.90;;;;;;5067449;28;20448;-87
2021/10/28 03:29:04;;;;;;;11.33;9.90;;;9.60;99.90;;;;;;5067227;28;20504;-87
2021/10/28 03:31:30;;;;;;;14.00;10.20;;;8.30;99.90;;;;;;5070944;28;20474;-85
2021/10/28 03:33:57;;;;;;;10.63;9.30;;;9.70;99.90;;;;;;5065738;28;20438;-85
2021/10/28 03:36:33;;;;;;;18.00;12.87;;;9.60;99.90;;;;;;5065153;28;20462;-86
2021/10/28 03:39:09;;;;;;;14.50;11.10;;;9.40;99.90;;;;;;5069061;28;20453;-85
2021/10/28 03:41:54;;;;;;;14.30;10.60;;;8.80;99.90;;;;;;5071653;28;20432;-85
2021/10/28 03:58:34;;;;;;;14.40;11.10;;;9.30;99.90;;;;;;5022316;28;20493;-86
2021/10/28 04:06:52;;;;;;;14.57;10.50;;;9.20;99.90;;;;;;5038798;28;20499;-85
2021/10/28 04:20:44;;;;;;;17.80;13.17;;;8.40;99.90;;;;;;5050755;28;20401;-86
2021/10/28 04:28:55;;;;;;;18.00;12.27;;;8.50;99.90;;;;;;5071280;28;20828;-87
2021/10/28 04:31:23;;;;;;;14.40;12.43;;;8.20;99.90;;;;;;5070076;28;20481;-86
2021/10/28 04:33:50;;;;;;;16.73;12.57;;;8.20;99.90;;;;;;5071000;28;20432;-86
2021/10/28 04:36:17;;;;;;;15.97;11.40;;;8.80;99.90;;;;;;5075185;28;20458;-86
2021/10/28 04:38:43;;;;;;;16.00;11.60;;;8.70;99.90;;;;;;5075223;28;20413;-85
2021/10/28 04:41:12;;;;;;;17.00;12.70;;;8.80;99.90;;;;;;5078085;28;20408;-84
2021/10/28 04:43:38;;;;;;;15.90;12.17;;;8.30;99.90;;;;;;5077913;28;20421;-85
2021/10/28 04:46:05;;;;;;;14.47;11.73;;;;;;;;;;5079867;28;20480;-85
2021/10/28 04:48:32;;;;;;;18.03;12.20;;;8.80;99.90;;;;;;5072796;28;20562;-86
2021/10/28 04:50:59;;;;;;;15.43;12.20;;;;;;;;;;5072682;28;20452;-83
2021/10/28 04:53:27;;;;;;;13.43;11.73;;;8.80;99.90;;;;;;5078061;28;20469;-85
2021/10/28 04:55:54;;;;;;;19.53;12.83;;;8.00;99.90;;;;;;5076835;28;20456;-83
2021/10/28 04:58:23;;;;;;;14.77;12.17;;;8.60;99.90;;;;;;5080001;28;20415;-85
2021/10/28 05:00:50;;;;;;;16.80;13.10;;;8.10;99.90;;;;;;5079939;28;20499;-85
2021/10/28 05:03:17;;;;;;;15.90;12.35;;;8.00;99.90;;;;;;5066419;28;20532;-85
2021/10/28 05:05:44;;;;;;;19.52;11.85;;;8.50;99.90;;;;;;5076084;28;20216;-85
2021/10/28 05:08:11;;;;;;;18.00;11.37;;;8.50;99.90;;;;;;5078520;28;20203;-85
2021/10/28 05:10:41;;;;;;;15.30;11.93;;;7.30;99.90;;;;;;5067836;28;20453;-85
2021/10/28 05:13:11;;;;;;;15.60;11.60;;;7.50;99.90;;;;;;5065034;28;20415;-87
2021/10/28 05:15:42;;;;;;;17.57;12.30;;;7.40;99.90;;;;;;5063143;28;20480;-85
2021/10/28 05:18:10;;;;;;;15.18;11.80;;;7.50;99.90;;;;;;5063333;28;20460;-86
2021/10/28 05:20:36;;;;;;;15.47;12.77;;;7.70;99.90;;;;;;5063091;28;20200;-86
2021/10/28 05:23:03;;;;;;;18.60;12.80;;;8.60;99.90;;;;;;5063722;28;20438;-86
2021/10/28 05:25:30;;;;;;;21.23;14.10;;;8.30;99.90;;;;;;5062748;28;20469;-86
2021/10/28 05:27:57;;;;;;;15.30;12.13;;;8.10;99.90;;;;;;5063279;28;20446;-86
2021/10/28 05:30:23;;;;;;;15.20;11.70;;;8.60;99.90;;;;;;5062677;28;20476;-85
2021/10/28 05:32:51;;;;;;;15.77;12.57;;;8.70;99.90;;;;;;5062683;28;20432;-85
2021/10/28 05:35:19;;;;;;;20.40;13.53;;;8.70;99.90;;;;;;5063301;28;20445;-86
2021/10/28 05:37:45;;;;;;;17.67;12.73;;;8.80;99.90;;;;;;5063474;28;20941;-85
2021/10/28 05:40:13;;;;;;;17.80;11.53;;;8.80;99.90;;;;;;5045732;28;20425;-85
2021/10/28 05:42:44;;;;;;;16.03;13.27;;;8.50;99.90;;;;;;5065010;28;20416;-85
2021/10/28 05:45:11;;;;;;;13.60;10.90;;;9.10;99.90;;;;;;5063489;28;20473;-86
2021/10/28 05:47:42;;;;;;;18.23;13.13;;;7.60;99.90;;;;;;5064529;28;20462;-85
2021/10/28 05:50:14;;;;;;;19.07;13.60;;;8.60;99.90;;;;;;5067247;28;20434;-86
2021/10/28 05:52:41;;;;;;;17.80;13.50;;;8.50;99.90;;;;;;5074912;28;20498;-83
2021/10/28 05:55:10;;;;;;;18.63;12.53;;;8.40;99.90;;;;;;5077789;28;20490;-85
2021/10/28 05:57:36;;;;;;;16.03;11.83;;;8.80;99.90;;;;;;5078722;28;20435;-86
2021/10/28 06:00:05;;;;;;;15.63;11.43;;;8.50;99.90;;;;;;5078551;28;20446;-84
2021/10/28 06:02:32;;;;;;;19.75;13.20;;;;;;;;;;5074685;28;20417;-86
2021/10/28 06:04:59;;;;;;;16.63;12.50;;;8.50;99.90;;;;;;5073580;28;20223;-86
2021/10/28 06:07:27;;;;;;;17.10;11.80;;;8.70;99.90;;;;;;5073695;28;20230;-86
2021/10/28 06:09:54;;;;;;;18.50;13.07;;;7.60;99.90;;;;;;5075327;28;20439;-86
2021/10/28 06:12:21;;;;;;;21.90;13.90;;;;;;;;;;5069872;28;20252;-86
2021/10/28 06:14:48;;;;;;;21.27;13.37;;;;;;;;;;5066753;28;20694;-86
2021/10/28 06:17:17;;;;;;;21.70;13.75;;;8.60;99.90;;;;;;5063925;28;20471;-86
2021/10/28 06:19:44;;;;;;;18.02;11.77;;;8.60;99.90;;;;;;5063071;28;20203;-87
2021/10/28 06:22:11;;;;;;;20.33;12.63;;;8.10;99.90;;;;;;5064488;28;20286;-85
2021/10/28 06:24:39;;;;;;;17.53;13.00;;;7.10;99.90;;;;;;5066699;28;20223;-87
2021/10/28 06:27:06;;;;;;;18.00;12.93;;;;;;;;;;5065846;28;20469;-84
2021/10/28 06:29:33;;;;;;;14.83;12.70;;;;;;;;;;5065962;28;20416;-86
2021/10/28 06:32:01;;;;;;;15.43;13.00;;;8.50;99.90;;;;;;5068998;28;20524;-85
2021/10/28 06:34:33;;;;;;;18.58;14.55;;;;;;;;;;5076741;28;20413;-85
2021/10/28 06:37:04;;;;;;;19.98;13.23;;;8.60;99.90;;;;;;5077607;28;20194;-86
2021/10/28 06:39:30;;;;;;;21.23;13.80;;;9.30;99.90;;;;;;5076953;28;20235;-85
2021/10/28 06:41:59;;;;;;;19.83;14.10;;;8.10;99.90;;;;;;5077011;28;20442;-84
2021/10/28 06:44:26;;;;;;;20.80;15.43;;;;;;;;;;5077326;28;20417;-84
2021/10/28 06:46:53;;;;;;;17.23;14.20;;;8.40;99.90;;;;;;5075323;28;20453;-85
2021/10/28 06:49:20;;;;;;;18.07;14.20;;;8.30;99.90;;;;;;5069232;28;20455;-84
2021/10/28 06:51:47;;;;;;;17.60;13.60;;;8.60;99.90;;;;;;5064849;28;20516;-84
2021/10/28 06:54:22;;;;;;;20.10;14.90;;;;;;;;;;5071679;28;20424;-85
2021/10/28 07:02:31;;;;;;;19.67;14.25;;;;;;;;;;5064051;28;20186;-85
2021/10/28 07:04:58;;;;;;;19.40;14.60;;;8.50;99.90;;;;;;5062708;28;20230;-86
2021/10/28 07:07:26;;;;;;;16.37;12.80;;;8.80;99.90;;;;;;5062676;28;20504;-86
2021/10/28 07:09:59;;;;;;;20.07;14.90;;;;;;;;;;5062999;28;20446;-85
2021/10/28 07:12:38;;;;;;;17.10;12.83;;;8.70;99.90;;;;;;5064118;28;20494;-86
2021/10/28 07:15:13;;;;;;;16.57;12.23;;;8.60;99.90;;;;;;5061872;28;20502;-85
2021/10/28 07:17:49;;;;;;;18.20;14.60;;;9.00;99.90;;;;;;5062206;28;20413;-85
2021/10/28 07:20:33;;;;;;;18.23;12.87;;;8.20;99.90;;;;;;5063802;28;20440;-84
2021/10/28 07:23:19;;;;;;;19.33;14.93;;;9.10;99.90;;;;;;5063966;28;20471;-83
2021/10/28 07:29:07;;;;;;;15.90;12.83;;;8.20;99.90;;;;;;5030708;28;20200;-86
2021/10/28 07:31:56;;;;;;;18.47;13.40;;;9.80;99.90;;;;;;5063778;28;20459;-84
2021/10/28 07:34:33;;;;;;;15.43;12.03;;;;;;;;;;5062309;28;20430;-85
2021/10/28 08:05:02;;;;;;;19.90;14.30;;;;;;;;;;5096268;28;20409;-90
2021/10/28 08:16:27;;;;;;;16.10;13.30;;;9.50;99.90;;;;;;4973705;28;20420;-89
2021/10/28 08:19:03;;;;;;;17.93;13.43;;;9.40;99.90;;;;;;5074419;28;20433;-89
2021/10/28 08:21:36;;;;;;;18.90;13.40;;;9.60;99.90;;;;;;5102955;28;21009;-89
2021/10/28 08:24:11;;;;;;;17.40;14.03;;;9.70;99.90;;;;;;5101523;28;20443;-86
2021/10/28 08:29:24;;;;;;;17.60;13.20;;;9.50;99.90;;;;;;5095368;28;20446;-86
2021/10/28 08:31:51;;;;;;;17.83;12.70;;;12.50;99.90;;;;;;5096988;28;20505;-86
2021/10/28 08:34:25;;;;;;;19.90;12.73;;;9.90;99.90;;;;;;5097145;28;20415;-86
2021/10/28 08:36:53;;;;;;;18.67;14.57;;;9.90;99.90;;;;;;5096756;28;20442;-86
2021/10/28 08:39:21;;;;;;;19.00;13.63;;;9.90;99.90;;;;;;5095904;28;20519;-86
2021/10/28 08:41:49;;;;;;;17.60;13.80;;;10.10;99.90;;;;;;5096338;28;20509;-86
2021/10/28 08:44:20;;;;;;;21.77;14.73;;;9.40;99.90;;;;;;5096580;28;20449;-86
2021/10/28 08:46:48;;;;;;;19.87;12.97;;;9.30;99.90;;;;;;5104639;28;20472;-84
2021/10/28 08:49:22;;;;;;;14.97;13.37;;;10.10;99.90;;;;;;5106813;28;20988;-85
2021/10/28 08:52:07;;;;;;;16.23;12.70;;;10.10;99.90;;;;;;5115104;28;20420;-85
2021/10/28 08:54:55;;;;;;;20.10;14.43;;;;;;;;;;5108612;28;20503;-85
2021/10/28 08:57:38;;;;;;;20.97;15.80;;;10.40;99.90;;;;;;5115327;28;20416;-86
2021/10/28 09:25:45;;;;;;;21.40;15.70;;;10.80;99.90;;;;;;4999874;28;20946;-86
2021/10/28 09:28:29;;;;;;;15.30;12.40;;;10.10;99.90;;;;;;5067136;28;20437;-85
2021/10/28 09:31:06;;;;;;;17.53;12.97;;;11.00;99.90;;;;;;5095798;28;20421;-87
2021/10/28 09:33:45;;;;;;;14.73;11.47;;;11.00;99.90;;;;;;5098506;28;20403;-86
2021/10/28 09:45:28;;;;;;;15.83;12.53;;;11.60;99.90;;;;;;5099856;28;20445;-85
2021/10/28 09:48:06;;;;;;;17.33;12.27;;;11.50;99.90;;;;;;5094511;28;20429;-87
2021/10/28 09:50:49;;;;;;;16.17;11.87;;;12.60;99.90;;;;;;5094492;28;20396;-87
2021/10/28 09:53:26;;;;;;;18.73;12.53;;;;;;;;;;5094708;28;20486;-87
2021/10/28 09:58:42;;;;;;;15.40;11.83;;;11.60;99.90;;;;;;5098128;28;20411;-87
2021/10/28 10:01:11;;;;;;;16.60;12.63;;;;;;;;;;5096852;28;20526;-87
2021/10/28 10:03:40;;;;;;;17.90;12.30;;;11.90;99.90;;;;;;5095663;28;20472;-88
2021/10/28 10:06:13;;;;;;;15.70;12.17;;;12.00;99.90;;;;;;5090721;28;20443;-87
2021/10/28 10:08:40;;;;;;;17.87;11.73;;;12.00;99.90;;;;;;5083599;28;20437;-87
2021/10/28 10:11:06;;;;;;;16.60;13.20;;;12.70;99.90;;;;;;5081830;28;20427;-87
2021/10/28 10:13:33;;;;;;;16.47;12.37;;;12.20;99.90;;;;;;5082836;28;20454;-86
2021/10/28 10:16:02;;;;;;;16.83;12.00;;;12.40;99.90;;;;;;5084057;28;20456;-87
2021/10/28 10:18:30;;;;;;;16.57;12.17;;;12.20;99.90;;;;;;5080366;28;20451;-87
2021/10/28 10:21:01;;;;;;;17.33;12.93;;;12.60;99.90;;;;;;5084500;28;20458;-86
2021/10/28 11:05:14;;;;;;;11.40;10.20;;;13.40;99.90;;;;;;5098760;28;20396;-85
2021/10/28 11:26:04;;;;;;;11.37;10.17;;;13.40;99.90;;;;;;5098237;28;20496;-86
2021/10/28 12:14:33;;;;;;;12.40;11.10;;;;;;;;;;5086540;28;20437;-87
2021/10/28 12:17:24;;;;;;;10.40;8.87;;;;;;;;;;5078303;28;20547;-87
2021/10/28 12:23:18;;;;;;;12.47;8.70;;;15.10;99.90;;;;;;5061014;28;20441;-87
2021/10/28 12:45:45;;;;;;;11.07;9.37;;;14.60;99.90;;;;;;5094378;28;20428;-86
2021/10/28 12:48:57;;;;;;;9.97;8.90;;;14.70;99.90;;;;;;5084722;28;20447;-86
2021/10/28 12:51:39;;;;;;;12.70;9.20;;;;;;;;;;5083337;28;20999;-86
2021/10/28 13:50:57;;;;;;;11.27;7.80;;;14.80;99.90;;;;;;5012568;28;20464;-87
2021/10/28 13:59:34;;;;;;;9.00;7.17;;;14.70;99.90;;;;;;5112920;28;20204;-86
2021/10/28 14:27:28;;;;;;;10.07;7.60;;;14.30;99.90;;;;;;5058605;28;20410;-87
2021/10/28 15:03:11;;;;;;;9.53;7.50;;;14.30;99.90;;;;;;5061937;28;20938;-87
2021/10/28 15:27:46;;;;;;;10.80;8.67;;;;;;;;;;5052522;28;20399;-86
2021/10/28 15:30:20;;;;;;;8.30;7.20;;;13.80;99.90;;;;;;5047275;28;20509;-86
2021/10/28 15:35:37;;;;;;;8.00;7.20;;;13.70;99.90;;;;;;5048643;28;20449;-86
2021/10/28 15:38:15;;;;;;;9.17;8.00;;;;;;;;;;5046496;28;20423;-86
2021/10/28 15:57:27;;;;;;;14.10;9.50;;;;;;;;;;5049207;28;20545;-87
2021/10/28 16:00:18;;;;;;;9.20;8.27;;;;;;;;;;5049120;28;20462;-86
2021/10/28 16:22:44;;;;;;;11.97;9.37;;;;;;;;;;5059039;28;20394;-87
2021/10/28 16:25:12;;;;;;;12.07;10.60;;;12.80;99.90;;;;;;5054823;28;20437;-87
2021/10/28 16:27:38;;;;;;;14.07;10.70;;;12.80;99.90;;;;;;5041817;28;20449;-87
2021/10/28 16:30:07;;;;;;;13.13;10.63;;;12.70;99.90;;;;;;5042541;28;20459;-87
2021/10/28 16:32:34;;;;;;;14.33;10.77;;;13.10;99.90;;;;;;5042925;28;20457;-87
2021/10/28 16:35:05;;;;;;;13.17;10.43;;;12.70;99.90;;;;;;5041357;28;20509;-85
2021/10/28 16:37:32;;;;;;;16.47;12.47;;;12.60;99.90;;;;;;5041456;28;20896;-87
2021/10/28 16:39:59;;;;;;;16.03;11.27;;;;;;;;;;5042090;28;20999;-86
2021/10/28 16:42:27;;;;;;;16.30;11.47;;;12.60;99.90;;;;;;5042139;28;20462;-85
2021/10/28 16:44:54;;;;;;;15.03;11.23;;;;;;;;;;5047255;28;20450;-88
2021/10/28 16:47:21;;;;;;;10.63;9.63;;;;;;;;;;5057494;28;20421;-86
2021/10/28 16:49:48;;;;;;;10.27;9.27;;;;;;;;;;5049094;28;20520;-86
2021/10/28 16:52:14;;;;;;;12.03;10.77;;;12.60;99.90;;;;;;5041514;28;20835;-86
2021/10/28 16:54:41;;;;;;;13.80;11.70;;;;;;;;;;5040102;28;20482;-86
2021/10/28 16:57:08;;;;;;;16.43;12.07;;;;;;;;;;5038741;28;20424;-86
2021/10/28 16:59:37;;;;;;;13.67;10.77;;;12.80;99.90;;;;;;5040752;28;20477;-86
2021/10/28 17:02:05;;;;;;;12.97;11.40;;;12.60;99.90;;;;;;5043354;28;20508;-87
2021/10/28 17:04:37;;;;;;;26.00;17.07;;;13.70;99.90;;;;;;5057531;28;20430;-86
2021/10/28 17:07:04;;;;;;;18.07;15.27;;;;;;;;;;5051373;28;20477;-87
2021/10/28 17:09:34;;;;;;;17.77;12.57;;;;;;;;;;5121080;22;20553;-88
2021/10/28 17:12:01;;;;;;;13.63;10.90;;;;;;;;;;5073218;28;20430;-88
2021/10/28 17:14:28;;;;;;;16.60;12.47;;;;;;;;;;5073379;28;20497;-88
2021/10/28 17:16:56;;;;;;;15.43;13.70;;;12.30;99.90;;;;;;5073117;28;20465;-86
2021/10/28 17:19:26;;;;;;;14.57;12.70;;;12.30;99.90;;;;;;5075143;28;20472;-87
2021/10/28 17:21:52;;;;;;;16.45;12.50;;;12.40;99.90;;;;;;5105890;22;20511;-87
2021/10/28 17:24:23;;;;;;;14.30;12.30;;;11.70;99.90;;;;;;5068079;28;20196;-87
2021/10/28 17:26:50;;;;;;;17.70;13.23;;;;;;;;;;5069407;28;20444;-88
2021/10/28 17:29:17;;;;;;;16.90;12.17;;;12.60;99.90;;;;;;5067320;28;20450;-86
2021/10/28 17:31:44;;;;;;;14.13;12.77;;;12.30;99.90;;;;;;5068445;28;20457;-87
2021/10/28 17:34:12;;;;;;;18.10;12.27;;;12.30;99.90;;;;;;5088160;28;20555;-86
2021/10/28 17:36:40;;;;;;;15.17;13.57;;;;;;;;;;5090660;28;20477;-87
2021/10/28 17:39:06;;;;;;;14.03;12.43;;;12.10;99.90;;;;;;5097163;28;20439;-86
2021/10/28 17:41:34;;;;;;;14.70;12.20;;;11.70;99.90;;;;;;5098049;28;20474;-86
2021/10/28 17:44:04;;;;;;;19.52;14.10;;;;;;;;;;5091808;28;20448;-87
2021/10/28 17:46:31;;;;;;;16.33;13.70;;;;;;;;;;5090457;28;20190;-86
2021/10/28 17:48:58;;;;;;;14.97;12.77;;;;;;;;;;5089278;28;20448;-86
2021/10/28 17:51:27;;;;;;;21.37;14.50;;;12.20;99.90;;;;;;5088567;28;20453;-87
2021/10/28 17:53:54;;;;;;;20.67;14.90;;;11.80;99.90;;;;;;5088878;28;20435;-86
2021/10/28 17:56:21;;;;;;;16.90;14.60;;;11.80;99.90;;;;;;5088452;28;20476;-86
2021/10/28 17:58:48;;;;;;;16.20;13.83;;;;;;;;;;5084117;28;20444;-86
2021/10/28 18:01:20;;;;;;;14.30;12.80;;;11.80;99.90;;;;;;5086139;28;20900;-86
2021/10/28 18:03:47;;;;;;;17.93;13.47;;;;;;;;;;5087409;28;20468;-86
2021/10/28 18:06:14;;;;;;;16.40;13.17;;;;;;;;;;5097034;28;20571;-85
2021/10/28 18:08:42;;;;;;;16.53;13.80;;;11.80;99.90;;;;;;5096937;28;20471;-86
2021/10/28 18:11:10;;;;;;;22.10;14.73;;;11.80;99.90;;;;;;5087842;28;20515;-86
2021/10/28 18:13:36;;;;;;;19.33;14.13;;;11.80;99.90;;;;;;5096332;28;20482;-86
2021/10/28 18:16:05;;;;;;;16.27;13.40;;;11.90;99.90;;;;;;5096882;28;20502;-87
2021/10/28 18:18:33;;;;;;;16.47;14.20;;;;;;;;;;5088481;28;20508;-87
2021/10/28 18:21:00;;;;;;;20.87;14.83;;;11.70;99.90;;;;;;5088342;28;20474;-87
2021/10/28 18:23:26;;;;;;;15.30;12.90;;;11.60;99.90;;;;;;5086568;28;20477;-87
2021/10/28 18:25:55;;;;;;;16.37;13.47;;;11.90;99.90;;;;;;5086183;28;20444;-87
2021/10/28 18:28:21;;;;;;;15.70;12.87;;;11.60;99.90;;;;;;5086881;28;20475;-87
2021/10/28 18:30:48;;;;;;;15.97;13.60;;;11.70;99.90;;;;;;5086092;28;20444;-86
2021/10/28 18:33:14;;;;;;;17.33;13.85;;;11.60;99.90;;;;;;5088181;28;20440;-87
2021/10/28 18:35:42;;;;;;;15.30;13.30;;;;;;;;;;5093485;28;20256;-86
2021/10/28 18:38:11;;;;;;;16.77;14.13;;;;;;;;;;5091976;28;20421;-88
2021/10/28 18:40:38;;;;;;;16.03;13.60;;;11.40;99.90;;;;;;5091207;28;20479;-87
2021/10/28 18:43:06;;;;;;;16.43;13.57;;;11.30;99.90;;;;;;5094795;28;20460;-87
2021/10/28 18:45:33;;;;;;;18.60;13.83;;;11.50;99.90;;;;;;5095518;28;20458;-87
2021/10/28 18:48:01;;;;;;;15.03;13.33;;;11.30;99.90;;;;;;5093434;28;20445;-88
2021/10/28 18:50:28;;;;;;;26.77;13.30;;;11.20;99.90;;;;;;5093443;28;20440;-88
2021/10/28 18:52:55;;;;;;;15.73;13.40;;;10.80;99.90;;;;;;5096769;28;20465;-86
2021/10/28 18:55:22;;;;;;;14.63;11.67;;;10.50;99.90;;;;;;5099272;28;20526;-87
2021/10/28 18:57:49;;;;;;;16.53;12.80;;;;;;;;;;5100367;28;20428;-87
2021/10/28 19:00:17;;;;;;;22.20;14.00;;;11.00;99.90;;;;;;5096040;28;20440;-86
2021/10/28 19:02:44;;;;;;;20.60;14.90;;;11.00;99.90;;;;;;5093856;28;20502;-86
2021/10/28 19:05:11;;;;;;;17.30;13.70;;;10.80;99.90;;;;;;5097836;28;20497;-85
2021/10/28 19:07:38;;;;;;;14.70;12.67;;;;;;;;;;5095030;28;20443;-87
2021/10/28 19:10:06;;;;;;;17.70;12.07;;;10.90;99.90;;;;;;5099035;28;20419;-86
2021/10/28 19:12:33;;;;;;;14.90;13.00;;;11.00;99.90;;;;;;5099716;28;20482;-86
2021/10/28 19:14:59;;;;;;;17.33;12.93;;;11.00;99.90;;;;;;5100607;28;20455;-86
2021/10/28 19:17:27;;;;;;;18.17;13.30;;;11.00;99.90;;;;;;5099898;28;20452;-88
2021/10/28 19:19:54;;;;;;;16.27;13.43;;;11.00;99.90;;;;;;5095597;28;20452;-88
2021/10/28 19:22:23;;;;;;;19.97;13.17;;;10.80;99.90;;;;;;5094753;28;20533;-86
2021/10/28 19:24:50;;;;;;;19.70;12.93;;;10.80;99.90;;;;;;5098611;28;20407;-86
2021/10/28 19:27:17;;;;;;;16.07;12.50;;;10.70;99.90;;;;;;5098928;28;20427;-87
2021/10/28 19:29:46;;;;;;;17.40;13.27;;;;;;;;;;5095514;28;20448;-87
2021/10/28 19:32:17;;;;;;;16.33;12.03;;;10.60;99.90;;;;;;5091390;28;20883;-86
2021/10/28 19:34:46;;;;;;;15.53;11.93;;;10.50;99.90;;;;;;5072217;28;20437;-86
2021/10/28 19:37:16;;;;;;;16.90;13.10;;;10.40;99.90;;;;;;5089378;28;20519;-87
2021/10/28 19:45:28;;;;;;;13.63;11.30;;;10.40;99.90;;;;;;5061220;28;20436;-87
2021/10/28 19:47:55;;;;;;;15.23;12.30;;;10.30;99.90;;;;;;5092655;28;20475;-86
2021/10/28 19:50:23;;;;;;;13.80;12.23;;;10.30;99.90;;;;;;5090492;28;20448;-86
2021/10/28 19:52:50;;;;;;;15.87;13.43;;;;;;;;;;5089938;28;20467;-87
2021/10/28 19:55:18;;;;;;;16.77;13.07;;;10.40;99.90;;;;;;5090329;28;20466;-87
2021/10/28 19:57:50;;;;;;;15.70;14.10;;;10.40;99.90;;;;;;5089059;28;20441;-87
2021/10/28 20:00:22;;;;;;;15.47;11.70;;;10.50;99.90;;;;;;5088923;28;20822;-87
2021/10/28 20:03:20;;;;;;;16.90;12.53;;;10.10;99.90;;;;;;5088708;28;20464;-87
2021/10/28 20:06:03;;;;;;;15.17;12.70;;;10.30;99.90;;;;;;5087757;28;20425;-87
2021/10/28 20:22:15;;;;;;;13.97;10.90;;;10.10;99.90;;;;;;5092049;28;20475;-85
2021/10/28 20:24:42;;;;;;;14.03;11.60;;;10.20;99.90;;;;;;5089990;28;20461;-86
2021/10/28 20:27:09;;;;;;;13.00;10.57;;;9.90;99.90;;;;;;5091049;28;20448;-87
2021/10/28 20:29:35;;;;;;;13.40;10.60;;;9.90;99.90;;;;;;5090566;28;20440;-85
2021/10/28 20:32:02;;;;;;;13.73;10.87;;;9.90;99.90;;;;;;5090233;28;20465;-88
2021/10/28 20:34:32;;;;;;;15.87;10.57;;;9.90;99.90;;;;;;5095410;28;20422;-87
2021/10/28 20:37:08;;;;;;;16.07;10.80;;;10.50;99.90;;;;;;5097586;28;20488;-85
2021/10/28 20:39:39;;;;;;;11.93;10.30;;;10.00;99.90;;;;;;5096625;28;20427;-86
2021/10/28 20:42:06;;;;;;;11.83;10.23;;;10.10;99.90;;;;;;5096381;28;20491;-86
2021/10/28 20:44:34;;;;;;;11.10;10.00;;;;;;;;;;5096948;28;20451;-85
2021/10/28 20:47:00;;;;;;;11.50;9.90;;;10.00;99.90;;;;;;5095422;28;20446;-86
2021/10/28 20:49:28;;;;;;;13.23;11.03;;;10.80;99.90;;;;;;5088766;28;20440;-86
2021/10/28 20:51:54;;;;;;;14.83;11.43;;;9.90;99.90;;;;;;5088225;28;20441;-86
2021/10/28 20:54:22;;;;;;;15.17;11.17;;;10.00;99.90;;;;;;5089681;28;20419;-84
2021/10/28 20:56:50;;;;;;;14.73;11.43;;;10.00;99.90;;;;;;5094874;28;20484;-85